Time;durP1;ratioP1;P1;durP2;ratioP2;P2;SDS_P1;SDS_P2;PMS_P1;PMS_P2;Temp;Humidity;BMP_temperature;BMP_pressure;BME280_temperature;BME280_humidity;BME280_pressure;Samples;Min_cycle;Max_cycle;Signal;HPM_P1;HPM_P2
2023/01/21 00:00:59;;;;;;;;;;;;;;;18.38;65.82;100520.50;7403941;19;2036;-47
2023/01/21 00:03:27;;;;;;;;;;;;;;;18.23;66.34;100525.41;7403798;19;1840;-47
2023/01/21 00:05:57;;;;;;;;;;;;;;;18.18;66.47;100520.44;7404369;19;1713;-47
2023/01/21 00:08:25;;;;;;;;;;;;;;;18.05;66.39;100523.38;7404138;19;1999;-47
2023/01/21 00:10:53;;;;;;;;;;;;;;;18.04;66.54;100540.41;7405194;19;1599;-47
2023/01/21 00:13:21;;;;;;;;;;;;;;;17.96;66.59;100534.88;7403914;19;1869;-47
2023/01/21 00:15:50;;;;;;;;;;;;;;;17.93;67.02;100547.69;7403742;19;1967;-47
2023/01/21 00:18:21;;;;;;;;;;;;;;;17.84;66.77;100547.50;7403382;19;1937;-47
2023/01/21 00:20:49;;;;;;;;;;;;;;;18.42;65.69;100549.56;7403616;19;1943;-47
2023/01/21 00:23:17;;;;;;;;;;;;;;;19.44;62.40;100546.53;7402237;19;1727;-47
2023/01/21 00:25:46;;;;;;;;;;;;;;;20.12;60.63;100548.19;7403245;19;1792;-47
2023/01/21 00:28:14;;;;;;;;;;;;;;;20.24;60.24;100555.06;7403100;19;1610;-47
2023/01/21 00:30:43;;;;;;;;;;;;;;;19.68;61.85;100550.59;7403762;19;1686;-47
2023/01/21 00:33:11;;;;;;;;;;;;;;;19.01;63.61;100553.19;7401932;19;1869;-47
2023/01/21 00:35:43;;;;;;;;;;;;;;;19.10;63.29;100539.94;7403706;19;1981;-47
2023/01/21 00:38:12;;;;;;;;;;;;;;;19.55;62.33;100548.19;7403789;19;1630;-47
2023/01/21 00:40:41;;;;;;;;;;;;;;;19.68;62.31;100558.63;7401981;19;1570;-47
2023/01/21 00:43:10;;;;;;;;;;;;;;;19.81;61.76;100555.66;7402803;19;1870;-48
2023/01/21 00:45:38;;;;;;;;;;;;;;;19.22;63.11;100560.25;7402661;19;1872;-47
2023/01/21 00:48:06;;;;;;;;;;;;;;;18.74;64.56;100553.00;7399661;19;1886;-47
2023/01/21 00:50:35;;;;;;;;;;;;;;;18.39;65.54;100549.81;7402743;19;1749;-47
2023/01/21 00:53:06;;;;;;;;;;;;;;;18.31;65.80;100563.06;7402414;19;2005;-47
2023/01/21 00:55:34;;;;;;;;;;;;;;;18.32;65.93;100545.16;7402443;19;1568;-47
2023/01/21 00:58:02;;;;;;;;;;;;;;;19.46;62.67;100544.56;7402237;19;2031;-47
2023/01/21 01:00:30;;;;;;;;;;;;;;;19.94;61.38;100563.41;7403243;19;1611;-47
2023/01/21 01:02:59;;;;;;;;;;;;;;;19.85;61.29;100565.94;7401931;19;1702;-47
2023/01/21 01:05:27;;;;;;;;;;;;;;;19.92;61.51;100560.00;7403102;19;1836;-47
2023/01/21 01:07:56;;;;;;;;;;;;;;;19.99;61.37;100550.38;7403170;19;1876;-47
2023/01/21 01:10:26;;;;;;;;;;;;;;;20.26;60.53;100561.13;7401555;19;1788;-47
2023/01/21 01:12:55;;;;;;;;;;;;;;;20.12;60.29;100550.88;7402875;19;2169;-47
2023/01/21 01:15:23;;;;;;;;;;;;;;;19.34;62.71;100548.38;7402306;19;1994;-48
2023/01/21 01:17:52;;;;;;;;;;;;;;;18.77;64.44;100558.94;7401292;19;1649;-47
2023/01/21 01:20:20;;;;;;;;;;;;;;;18.51;65.03;100565.78;7401940;19;1639;-47
2023/01/21 01:22:48;;;;;;;;;;;;;;;18.30;65.51;100566.69;7400399;19;1766;-47
2023/01/21 01:25:17;;;;;;;;;;;;;;;18.20;65.77;100566.66;7400617;19;1809;-47
2023/01/21 01:27:47;;;;;;;;;;;;;;;18.12;65.69;100571.84;7401950;19;1604;-48
2023/01/21 01:30:16;;;;;;;;;;;;;;;18.04;66.15;100560.97;7402971;19;1645;-47
2023/01/21 01:32:44;;;;;;;;;;;;;;;18.02;65.94;100576.31;7400178;19;1719;-47
2023/01/21 01:35:12;;;;;;;;;;;;;;;17.94;66.25;100554.72;7397580;19;2085;-47
2023/01/21 01:37:41;;;;;;;;;;;;;;;17.92;66.13;100578.09;7400611;19;2026;-47
2023/01/21 01:40:11;;;;;;;;;;;;;;;17.91;66.21;100579.09;7400938;19;1750;-47
2023/01/21 01:42:39;;;;;;;;;;;;;;;17.93;65.93;100580.66;7401422;19;2008;-47
2023/01/21 01:45:18;;;;;;;;;;;;;;;17.85;66.38;100588.50;7401208;19;1784;-47
2023/01/21 01:47:49;;;;;;;;;;;;;;;18.56;64.78;100576.91;7399955;19;2043;-47
2023/01/21 01:50:21;;;;;;;;;;;;;;;19.51;61.93;100581.66;7401130;19;1879;-47
2023/01/21 01:52:49;;;;;;;;;;;;;;;20.18;60.07;100593.25;7399734;19;1867;-47
2023/01/21 01:55:17;;;;;;;;;;;;;;;20.16;59.94;100589.03;7397931;19;1860;-47
2023/01/21 01:57:48;;;;;;;;;;;;;;;19.75;61.38;100589.28;7400612;19;1606;-47
2023/01/21 02:00:20;;;;;;;;;;;;;;;19.02;62.86;100570.09;7400861;19;1545;-47
2023/01/21 02:03:43;;;;;;;;;;;;;;;19.18;63.21;100577.59;7400199;19;1761;-47
2023/01/21 02:05:38;;;;;;;;;;;;;;;19.66;61.50;100560.63;7399437;19;1838;-48
2023/01/21 02:08:08;;;;;;;;;;;;;;;19.10;63.01;100559.56;7400523;19;1676;-48
2023/01/21 02:10:36;;;;;;;;;;;;;;;18.63;64.37;100568.19;7399032;19;1988;-47
2023/01/21 02:13:05;;;;;;;;;;;;;;;18.28;65.29;100552.59;7400574;19;1740;-47
2023/01/21 02:15:41;;;;;;;;;;;;;;;18.11;65.63;100546.09;7397526;19;2188;-47
2023/01/21 02:18:14;;;;;;;;;;;;;;;18.01;65.89;100556.75;7399087;19;1866;-47
2023/01/21 02:20:52;;;;;;;;;;;;;;;17.93;66.18;100561.91;7399698;19;1703;-48
2023/01/21 02:23:22;;;;;;;;;;;;;;;17.86;65.95;100550.88;7399797;19;1781;-47
2023/01/21 02:26:14;;;;;;;;;;;;;;;17.81;66.26;100534.38;7399451;19;1583;-47
2023/01/21 02:28:58;;;;;;;;;;;;;;;17.78;66.25;100529.28;7401143;19;1622;-47
2023/01/21 02:31:37;;;;;;;;;;;;;;;17.78;65.86;100572.06;7399120;19;2011;-47
2023/01/21 02:34:21;;;;;;;;;;;;;;;17.78;65.73;100564.03;7397978;19;1854;-47
2023/01/21 02:37:01;;;;;;;;;;;;;;;17.77;65.92;100580.25;7399772;19;1763;-47
2023/01/21 02:39:36;;;;;;;;;;;;;;;17.73;66.19;100563.59;7399577;19;1834;-47
2023/01/21 02:42:07;;;;;;;;;;;;;;;17.68;66.15;100549.78;7398841;19;1651;-49
2023/01/21 02:44:40;;;;;;;;;;;;;;;17.65;66.20;100555.41;7401929;19;1615;-47
2023/01/21 02:47:16;;;;;;;;;;;;;;;17.69;66.54;100567.53;7406144;19;2061;-47
2023/01/21 02:49:48;;;;;;;;;;;;;;;17.66;66.26;100565.94;7407178;19;1937;-48
2023/01/21 02:52:20;;;;;;;;;;;;;;;17.63;66.26;100552.00;7406095;19;1663;-48
2023/01/21 02:54:53;;;;;;;;;;;;;;;17.53;66.41;100549.28;7405401;19;1858;-47
2023/01/21 02:57:26;;;;;;;;;;;;;;;18.14;65.48;100539.59;7407406;19;1319;-47
2023/01/21 02:59:56;;;;;;;;;;;;;;;19.18;62.55;100548.09;7406049;19;1810;-47
2023/01/21 03:02:30;;;;;;;;;;;;;;;19.81;60.33;100559.16;7405144;19;1829;-47
2023/01/21 03:05:08;;;;;;;;;;;;;;;19.04;62.27;100555.59;7406036;19;1867;-47
2023/01/21 03:07:40;;;;;;;;;;;;;;;18.39;63.92;100546.31;7405307;19;1948;-47
2023/01/21 03:10:11;;;;;;;;;;;;;;;18.03;65.18;100553.94;7406959;19;1683;-47
2023/01/21 03:12:41;;;;;;;;;;;;;;;17.80;65.70;100559.41;7406371;19;1659;-47
2023/01/21 03:17:55;;;;;;;;;;;;;;;17.65;66.21;100566.09;7406418;19;1809;-47
2023/01/21 03:20:29;;;;;;;;;;;;;;;17.60;66.33;100557.59;7406107;19;1763;-47
2023/01/21 03:23:01;;;;;;;;;;;;;;;17.63;66.02;100552.84;7406623;19;1787;-47
2023/01/21 03:25:31;;;;;;;;;;;;;;;17.60;66.17;100552.25;7405443;19;1711;-47
2023/01/21 03:28:01;;;;;;;;;;;;;;;17.57;66.45;100537.34;7404701;19;1764;-47
2023/01/21 03:30:31;;;;;;;;;;;;;;;17.60;66.08;100552.25;7406695;19;1750;-47
2023/01/21 03:33:00;;;;;;;;;;;;;;;17.53;66.49;100545.72;7405605;19;1652;-47
2023/01/21 03:35:34;;;;;;;;;;;;;;;17.49;66.08;100543.34;7404362;19;1850;-47
2023/01/21 03:38:05;;;;;;;;;;;;;;;17.43;66.53;100537.69;7405102;19;2073;-47
2023/01/21 03:40:38;;;;;;;;;;;;;;;17.41;66.25;100537.81;7404087;19;1746;-47
2023/01/21 03:43:06;;;;;;;;;;;;;;;17.44;66.72;100542.88;7404896;19;1669;-47
2023/01/21 03:45:37;;;;;;;;;;;;;;;17.38;66.74;100543.41;7404473;19;1896;-47
2023/01/21 03:48:15;;;;;;;;;;;;;;;18.24;64.47;100525.28;7404228;19;1802;-47
2023/01/21 03:50:47;;;;;;;;;;;;;;;19.18;61.77;100540.06;7405193;19;1653;-47
2023/01/21 03:53:15;;;;;;;;;;;;;;;19.86;59.79;100531.91;7404716;19;2024;-47
2023/01/21 03:55:44;;;;;;;;;;;;;;;19.72;60.34;100543.97;7401984;19;1848;-47
2023/01/21 03:58:12;;;;;;;;;;;;;;;19.76;60.05;100553.41;7402972;19;1620;-47
2023/01/21 04:00:40;;;;;;;;;;;;;;;19.78;60.03;100543.38;7405082;19;1733;-47
2023/01/21 04:03:09;;;;;;;;;;;;;;;19.99;59.67;100528.88;7403918;19;1804;-47
2023/01/21 04:05:37;;;;;;;;;;;;;;;19.92;59.67;100549.28;7404517;19;1911;-47
2023/01/21 04:08:08;;;;;;;;;;;;;;;19.83;60.37;100535.72;7404158;19;1786;-47
2023/01/21 04:10:36;;;;;;;;;;;;;;;19.84;60.08;100539.28;7404657;19;1811;-47
2023/01/21 04:13:04;;;;;;;;;;;;;;;19.85;60.01;100523.00;7404001;19;1653;-47
2023/01/21 04:15:33;;;;;;;;;;;;;;;19.84;59.82;100550.00;7401341;19;1931;-47
2023/01/21 04:18:01;;;;;;;;;;;;;;;19.85;60.04;100559.72;7402819;19;1880;-47
2023/01/21 04:20:29;;;;;;;;;;;;;;;19.88;60.04;100563.97;7403939;19;1662;-47
2023/01/21 04:22:58;;;;;;;;;;;;;;;19.78;60.29;100558.63;7404405;19;1735;-47
2023/01/21 04:25:28;;;;;;;;;;;;;;;19.71;60.26;100542.25;7403322;19;2015;-47
2023/01/21 04:27:57;;;;;;;;;;;;;;;19.74;60.09;100546.50;7404654;19;1618;-47
2023/01/21 04:30:25;;;;;;;;;;;;;;;19.77;60.01;100555.09;7403716;19;1911;-47
2023/01/21 04:32:53;;;;;;;;;;;;;;;19.84;60.10;100579.53;7402927;19;1908;-47
2023/01/21 04:35:22;;;;;;;;;;;;;;;19.88;59.99;100580.09;7401918;19;1857;-47
2023/01/21 04:37:50;;;;;;;;;;;;;;;19.82;60.13;100566.25;7403320;19;2076;-47
2023/01/21 04:40:19;;;;;;;;;;;;;;;19.88;60.24;100572.03;7402764;19;1766;-47
2023/01/21 04:42:50;;;;;;;;;;;;;;;19.94;59.88;100576.81;7403531;19;1689;-47
2023/01/21 04:45:18;;;;;;;;;;;;;;;19.96;60.06;100578.34;7403555;19;1755;-47
2023/01/21 04:47:46;;;;;;;;;;;;;;;20.00;60.31;100579.75;7401669;19;1713;-47
2023/01/21 04:50:15;;;;;;;;;;;;;;;20.00;60.12;100584.28;7402509;19;1767;-47
2023/01/21 04:52:44;;;;;;;;;;;;;;;19.88;60.33;100574.72;7403120;19;1591;-47
2023/01/21 04:55:12;;;;;;;;;;;;;;;19.92;60.14;100590.38;7401302;19;1973;-47
2023/01/21 04:57:41;;;;;;;;;;;;;;;19.91;60.09;100595.88;7401909;19;1673;-47
2023/01/21 05:00:12;;;;;;;;;;;;;;;19.93;60.16;100573.25;7403164;19;1623;-47
2023/01/21 05:02:40;;;;;;;;;;;;;;;19.93;60.16;100569.75;7402762;19;2135;-47
2023/01/21 05:05:10;;;;;;;;;;;;;;;19.99;60.17;100583.41;7401647;19;1869;-47
2023/01/21 05:07:38;;;;;;;;;;;;;;;19.97;59.93;100589.91;7400600;19;1959;-47
2023/01/21 05:10:07;;;;;;;;;;;;;;;19.92;59.96;100601.09;7402284;19;1817;-47
2023/01/21 05:12:35;;;;;;;;;;;;;;;19.95;60.02;100581.16;7402688;19;2030;-48
2023/01/21 05:15:04;;;;;;;;;;;;;;;20.02;59.81;100606.44;7401408;19;1991;-47
2023/01/21 05:17:35;;;;;;;;;;;;;;;19.98;59.98;100610.41;7402284;19;1706;-47
2023/01/21 05:20:03;;;;;;;;;;;;;;;19.95;59.77;100603.47;7401815;19;2027;-47
2023/01/21 05:22:32;;;;;;;;;;;;;;;19.96;59.77;100615.09;7403174;19;1797;-47
2023/01/21 05:25:01;;;;;;;;;;;;;;;20.04;59.72;100618.72;7401846;19;2226;-47
2023/01/21 05:27:29;;;;;;;;;;;;;;;19.97;59.68;100622.97;7402110;19;1684;-47
2023/01/21 05:29:58;;;;;;;;;;;;;;;19.98;59.54;100607.72;7401801;19;1727;-47
2023/01/21 05:32:26;;;;;;;;;;;;;;;19.98;60.04;100623.84;7401756;19;1844;-47
2023/01/21 05:34:57;;;;;;;;;;;;;;;20.04;59.61;100616.03;7399551;19;2062;-48
2023/01/21 05:37:25;;;;;;;;;;;;;;;19.99;59.84;100609.41;7400688;19;1837;-47
2023/01/21 05:39:54;;;;;;;;;;;;;;;20.00;59.43;100611.97;7401681;19;1821;-47
2023/01/21 05:42:22;;;;;;;;;;;;;;;19.99;59.94;100615.63;7401093;19;1796;-47
2023/01/21 05:44:50;;;;;;;;;;;;;;;19.95;60.13;100613.38;7401495;19;1665;-47
2023/01/21 05:47:19;;;;;;;;;;;;;;;19.97;59.70;100597.97;7400420;19;1831;-47
2023/01/21 05:49:47;;;;;;;;;;;;;;;20.01;59.59;100605.56;7401141;19;1648;-47
2023/01/21 05:52:18;;;;;;;;;;;;;;;20.01;59.43;100585.94;7400300;19;2022;-47
2023/01/21 05:54:46;;;;;;;;;;;;;;;20.03;59.38;100594.69;7399342;19;1845;-47
2023/01/21 05:57:14;;;;;;;;;;;;;;;20.01;59.65;100592.16;7400291;19;1890;-47
2023/01/21 05:59:43;;;;;;;;;;;;;;;20.00;59.47;100595.84;7401525;19;1622;-47
2023/01/21 06:02:11;;;;;;;;;;;;;;;19.98;59.48;100597.84;7400698;19;2114;-47
2023/01/21 06:04:39;;;;;;;;;;;;;;;20.04;59.44;100599.09;7400805;19;1872;-47
2023/01/21 06:07:07;;;;;;;;;;;;;;;20.01;59.58;100597.53;7400138;19;1677;-47
2023/01/21 06:09:38;;;;;;;;;;;;;;;20.00;59.45;100595.00;7400220;19;1791;-47
2023/01/21 06:12:07;;;;;;;;;;;;;;;20.01;59.41;100607.44;7400247;19;1877;-47
2023/01/21 06:14:35;;;;;;;;;;;;;;;20.04;59.67;100607.16;7401322;19;1853;-47
2023/01/21 06:17:03;;;;;;;;;;;;;;;20.01;59.50;100618.16;7397236;19;2058;-48
2023/01/21 06:19:32;;;;;;;;;;;;;;;20.03;59.65;100616.19;7396593;19;1914;-47
2023/01/21 06:22:00;;;;;;;;;;;;;;;20.13;59.35;100617.00;7399566;19;1631;-47
2023/01/21 06:24:28;;;;;;;;;;;;;;;20.10;59.52;100611.94;7399965;19;1833;-47
2023/01/21 06:26:59;;;;;;;;;;;;;;;20.19;59.24;100624.47;7399908;19;1850;-47
2023/01/21 06:29:27;;;;;;;;;;;;;;;20.18;59.45;100620.09;7401217;19;1910;-47
2023/01/21 06:31:56;;;;;;;;;;;;;;;20.19;59.31;100620.94;7398752;19;2158;-47
2023/01/21 06:34:24;;;;;;;;;;;;;;;20.15;59.17;100620.38;7399040;19;1834;-47
2023/01/21 06:36:52;;;;;;;;;;;;;;;19.77;60.34;100635.59;7397801;19;1943;-48
2023/01/21 06:39:21;;;;;;;;;;;;;;;19.16;61.80;100622.44;7400250;19;1860;-47
2023/01/21 06:41:49;;;;;;;;;;;;;;;18.78;62.67;100632.09;7399934;19;2031;-48
2023/01/21 06:44:20;;;;;;;;;;;;;;;18.44;62.91;100643.13;7399619;19;1605;-48
2023/01/21 06:46:48;;;;;;;;;;;;;;;18.52;64.15;100645.97;7398928;19;2108;-47
2023/01/21 06:49:16;;;;;;;;;;;;;;;19.51;61.43;100637.16;7398499;19;1744;-47
2023/01/21 06:51:45;;;;;;;;;;;;;;;19.98;59.83;100634.56;7398122;19;1660;-47
2023/01/21 06:54:13;;;;;;;;;;;;;;;20.11;59.73;100618.97;7399116;19;1663;-47
2023/01/21 06:56:43;;;;;;;;;;;;;;;19.70;60.72;100629.09;7396986;19;2079;-47
2023/01/21 06:59:11;;;;;;;;;;;;;;;19.14;62.32;100627.09;7398131;19;1829;-47
2023/01/21 07:01:42;;;;;;;;;;;;;;;19.54;61.23;100629.66;7398920;19;1617;-47
2023/01/21 07:04:10;;;;;;;;;;;;;;;19.90;60.10;100621.03;7398731;19;1821;-47
2023/01/21 07:06:38;;;;;;;;;;;;;;;20.10;59.95;100622.66;7399434;19;1812;-47
2023/01/21 07:09:07;;;;;;;;;;;;;;;20.39;59.00;100630.63;7399028;19;1630;-47
2023/01/21 07:11:36;;;;;;;;;;;;;;;20.59;58.50;100627.84;7398635;19;1728;-47
2023/01/21 07:14:04;;;;;;;;;;;;;;;20.55;58.27;100631.78;7398456;19;2184;-47
2023/01/21 07:16:32;;;;;;;;;;;;;;;20.54;58.60;100614.00;7396619;19;1848;-47
2023/01/21 07:19:03;;;;;;;;;;;;;;;20.58;58.51;100626.97;7397335;19;1823;-47
2023/01/21 07:21:31;;;;;;;;;;;;;;;20.54;58.74;100622.91;7398784;19;1910;-47
2023/01/21 07:24:00;;;;;;;;;;;;;;;20.52;58.48;100632.94;7396977;19;2015;-47
2023/01/21 07:26:31;;;;;;;;;;;;;;;20.55;58.69;100637.16;7394196;19;1978;-47
2023/01/21 07:29:00;;;;;;;;;;;;;;;20.66;58.49;100634.34;7397302;19;1934;-48
2023/01/21 07:31:29;;;;;;;;;;;;;;;20.20;59.59;100634.22;7398820;19;1635;-48
2023/01/21 07:33:58;;;;;;;;;;;;;;;19.68;61.05;100637.28;7402920;19;2151;-47
2023/01/21 07:36:29;;;;;;;;;;;;;;;19.34;62.34;100631.50;7403396;19;1962;-47
2023/01/21 07:38:57;;;;;;;;;;;;;;;19.08;63.03;100632.06;7401850;19;1667;-48
2023/01/21 07:41:26;;;;;;;;;;;;;;;18.97;62.91;100634.84;7404848;19;1632;-48
2023/01/21 07:43:54;;;;;;;;;;;;;;;18.84;63.31;100619.03;7405851;19;1502;-48
2023/01/21 07:46:23;;;;;;;;;;;;;;;18.79;63.36;100639.16;7404488;19;1767;-48
2023/01/21 07:48:52;;;;;;;;;;;;;;;18.74;63.08;100628.00;7404955;19;1627;-47
2023/01/21 07:51:21;;;;;;;;;;;;;;;18.74;62.84;100646.75;7404371;19;1685;-48
2023/01/21 07:53:51;;;;;;;;;;;;;;;18.71;62.77;100639.84;7404600;19;1803;-48
2023/01/21 07:56:20;;;;;;;;;;;;;;;18.74;62.71;100650.28;7401318;19;1858;-47
2023/01/21 07:58:49;;;;;;;;;;;;;;;18.74;62.81;100641.38;7404493;19;1515;-48
2023/01/21 08:01:17;;;;;;;;;;;;;;;18.73;62.05;100632.50;7404493;19;1603;-48
2023/01/21 08:03:46;;;;;;;;;;;;;;;18.68;62.35;100646.31;7403012;19;1488;-48
2023/01/21 08:06:15;;;;;;;;;;;;;;;18.68;62.37;100635.63;7401006;19;1889;-48
2023/01/21 08:08:43;;;;;;;;;;;;;;;18.65;62.43;100614.44;7401233;19;1594;-48
2023/01/21 08:11:14;;;;;;;;;;;;;;;18.65;62.31;100633.19;7403254;19;1586;-48
2023/01/21 08:13:43;;;;;;;;;;;;;;;18.73;62.41;100634.34;7403542;19;1588;-47
2023/01/21 08:16:12;;;;;;;;;;;;;;;19.75;59.01;100642.09;7402998;19;1874;-48
2023/01/21 08:18:40;;;;;;;;;;;;;;;19.71;58.75;100616.50;7400132;19;1865;-48
2023/01/21 08:21:09;;;;;;;;;;;;;;;19.27;59.62;100614.28;7402824;19;1748;-48
2023/01/21 08:23:37;;;;;;;;;;;;;;;18.97;59.89;100623.28;7403324;19;2283;-47
2023/01/21 08:26:06;;;;;;;;;;;;;;;18.85;60.71;100620.72;7401879;19;1670;-48
2023/01/21 08:28:37;;;;;;;;;;;;;;;18.79;61.09;100633.81;7403418;19;1681;-47
2023/01/21 08:31:06;;;;;;;;;;;;;;;18.74;61.70;100617.28;7403707;19;1433;-48
2023/01/21 08:33:34;;;;;;;;;;;;;;;18.74;61.99;100611.91;7402772;19;1581;-48
2023/01/21 08:36:02;;;;;;;;;;;;;;;18.72;62.29;100614.75;7401719;19;1838;-47
2023/01/21 08:38:31;;;;;;;;;;;;;;;18.71;62.33;100614.91;7403051;19;1580;-47
2023/01/21 08:41:00;;;;;;;;;;;;;;;18.65;62.38;100617.13;7399647;19;2071;-48
2023/01/21 08:43:28;;;;;;;;;;;;;;;18.59;62.81;100628.38;7401736;19;1558;-48
2023/01/21 08:46:00;;;;;;;;;;;;;;;18.52;62.57;100608.47;7398859;19;1769;-48
2023/01/21 08:48:28;;;;;;;;;;;;;;;18.55;62.78;100624.28;7401949;19;1690;-47
2023/01/21 08:50:59;;;;;;;;;;;;;;;18.47;62.86;100621.44;7402920;19;1690;-48
2023/01/21 08:53:28;;;;;;;;;;;;;;;18.44;62.95;100611.00;7401524;19;1759;-48
2023/01/21 08:55:59;;;;;;;;;;;;;;;18.36;63.03;100597.44;7401084;19;1983;-48
2023/01/21 08:58:28;;;;;;;;;;;;;;;18.36;64.21;100606.31;7401630;19;2466;-48
2023/01/21 09:00:59;;;;;;;;;;;;;;;18.95;63.05;100618.06;7403267;19;1686;-47
2023/01/21 09:03:28;;;;;;;;;;;;;;;20.05;59.92;100606.13;7402338;19;2652;-47
2023/01/21 09:06:01;;;;;;;;;;;;;;;20.94;57.75;100610.97;7401596;19;1674;-47
2023/01/21 09:08:29;;;;;;;;;;;;;;;20.82;57.99;100596.06;7402493;19;1487;-47
2023/01/21 09:11:05;;;;;;;;;;;;;;;20.97;57.44;100613.34;7402372;19;1631;-48
2023/01/21 09:13:35;;;;;;;;;;;;;;;20.93;57.48;100598.53;7403154;19;1555;-48
2023/01/21 09:16:08;;;;;;;;;;;;;;;20.99;57.25;100600.59;7401657;19;2073;-48
2023/01/21 09:18:37;;;;;;;;;;;;;;;20.95;57.36;100596.53;7400369;19;1950;-48
2023/01/21 09:21:06;;;;;;;;;;;;;;;21.02;57.46;100586.00;7400813;19;1808;-48
2023/01/21 09:34:50;;;;;;;;;;;;;;;20.44;59.93;100576.44;6912878;19;10002604;-48
2023/01/21 09:37:18;;;;;;;;;;;;;;;20.82;58.62;100569.16;7430512;19;1691;-47
2023/01/21 09:39:46;;;;;;;;;;;;;;;20.86;59.35;100570.56;7424096;19;2176;-48
2023/01/21 09:42:19;;;;;;;;;;;;;;;20.78;58.62;100565.94;7427523;19;1846;-47
2023/01/21 09:44:50;;;;;;;;;;;;;;;20.86;58.51;100570.56;7425785;19;2218;-48
2023/01/21 09:47:21;;;;;;;;;;;;;;;20.87;58.35;100545.38;7429393;19;2159;-48
2023/01/21 09:49:54;;;;;;;;;;;;;;;20.81;58.55;100551.34;7430228;19;1715;-48
2023/01/21 09:52:26;;;;;;;;;;;;;;;20.77;58.66;100526.66;7435130;19;1950;-48
2023/01/21 09:54:56;;;;;;;;;;;;;;;20.70;58.89;100528.25;7432911;19;1834;-48
2023/01/21 09:57:39;;;;;;;;;;;;;;;20.73;58.92;100521.72;7432142;19;2110;-48
2023/01/21 10:00:16;;;;;;;;;;;;;;;20.62;58.70;100518.25;7433301;19;1741;-48
2023/01/21 10:02:50;;;;;;;;;;;;;;;20.68;58.43;100519.50;7431186;19;1857;-48
2023/01/21 10:05:39;;;;;;;;;;;;;;;20.54;59.19;100526.19;7431922;19;2012;-48
2023/01/21 10:08:13;;;;;;;;;;;;;;;20.53;59.24;100524.53;7433743;19;1719;-48
2023/01/21 10:10:47;;;;;;;;;;;;;;;20.63;59.16;100519.97;7433203;19;1613;-48
2023/01/21 10:13:21;;;;;;;;;;;;;;;20.60;59.26;100506.81;7431372;19;1775;-48
2023/01/21 10:15:56;;;;;;;;;;;;;;;20.75;59.02;100508.97;7432961;19;2483;-48
2023/01/21 10:18:27;;;;;;;;;;;;;;;20.71;59.67;100504.91;7432986;19;1661;-48
2023/01/21 10:20:58;;;;;;;;;;;;;;;20.01;61.36;100510.78;7433036;19;1728;-48
2023/01/21 10:23:29;;;;;;;;;;;;;;;19.60;62.82;100511.06;7431665;19;1931;-48
2023/01/21 10:26:00;;;;;;;;;;;;;;;19.52;63.29;100510.09;7431478;19;1580;-48
2023/01/21 10:28:29;;;;;;;;;;;;;;;19.92;62.30;100506.34;7433995;19;1699;-48
2023/01/21 10:31:01;;;;;;;;;;;;;;;20.26;61.21;100493.16;7432363;19;1926;-48
2023/01/21 10:33:33;;;;;;;;;;;;;;;19.98;61.80;100511.09;7429817;19;1925;-48
2023/01/21 10:36:26;;;;;;;;;;;;;;;19.60;62.70;100502.19;7402443;19;1992;-48
2023/01/21 10:38:59;;;;;;;;;;;;;;;19.51;63.41;100503.03;7403078;19;1926;-48
2023/01/21 10:41:37;;;;;;;;;;;;;;;19.98;61.89;100486.97;7402877;19;1934;-48
2023/01/21 10:44:09;;;;;;;;;;;;;;;20.14;61.28;100483.63;7401757;19;1851;-48
2023/01/21 10:46:44;;;;;;;;;;;;;;;19.78;62.54;100499.63;7404007;19;1923;-48
2023/01/21 10:49:21;;;;;;;;;;;;;;;19.38;63.51;100506.91;7402404;19;1668;-48
2023/01/21 10:51:54;;;;;;;;;;;;;;;19.53;63.29;100501.91;7405009;19;1641;-48
2023/01/21 10:54:27;;;;;;;;;;;;;;;19.98;62.17;100495.00;7402746;19;1865;-48
2023/01/21 10:56:58;;;;;;;;;;;;;;;20.14;61.73;100492.50;7401167;19;1838;-47
2023/01/21 10:59:30;;;;;;;;;;;;;;;19.60;61.56;100486.09;7398603;19;1891;-48
2023/01/21 11:02:06;;;;;;;;;;;;;;;19.26;63.48;100495.47;7400939;19;1980;-48
2023/01/21 11:04:35;;;;;;;;;;;;;;;19.06;64.06;100488.47;7398247;19;2236;-48
2023/01/21 11:07:09;;;;;;;;;;;;;;;18.96;64.09;100474.19;7402814;19;1870;-48
2023/01/21 11:09:39;;;;;;;;;;;;;;;18.95;64.82;100476.03;7398966;19;1813;-48
2023/01/21 11:12:07;;;;;;;;;;;;;;;18.86;64.39;100468.84;7398578;19;1802;-48
2023/01/21 11:14:36;;;;;;;;;;;;;;;18.80;64.90;100477.44;7398994;19;1808;-48
2023/01/21 11:17:04;;;;;;;;;;;;;;;18.78;65.28;100490.09;7401066;19;1912;-48
2023/01/21 11:19:33;;;;;;;;;;;;;;;18.76;65.02;100482.25;7402883;19;2077;-48
2023/01/21 11:22:03;;;;;;;;;;;;;;;18.77;64.90;100477.72;7403199;19;1957;-48
2023/01/21 11:24:43;;;;;;;;;;;;;;;18.73;65.33;100476.31;7397902;19;2125;-48
2023/01/21 11:27:20;;;;;;;;;;;;;;;18.78;65.67;100468.69;7400111;19;2077;-48
2023/01/21 11:29:49;;;;;;;;;;;;;;;18.68;65.27;100458.84;7400479;19;1883;-47
2023/01/21 11:32:19;;;;;;;;;;;;;;;18.63;64.74;100474.47;7401305;19;2038;-47
2023/01/21 11:34:48;;;;;;;;;;;;;;;18.55;64.51;100465.44;7400380;19;2116;-47
2023/01/21 11:37:23;;;;;;;;;;;;;;;18.47;64.37;100477.69;7402472;19;1752;-48
2023/01/21 11:39:56;;;;;;;;;;;;;;;18.38;64.58;100473.19;7400577;19;1644;-47
2023/01/21 11:42:25;;;;;;;;;;;;;;;18.33;65.19;100480.78;7402292;19;1814;-47
2023/01/21 11:44:54;;;;;;;;;;;;;;;18.27;65.03;100475.97;7400112;19;1856;-47
2023/01/21 11:47:36;;;;;;;;;;;;;;;18.25;65.09;100486.81;7398149;19;1788;-48
2023/01/21 11:50:12;;;;;;;;;;;;;;;18.21;65.08;100471.19;7402557;19;2303;-47
2023/01/21 11:52:40;;;;;;;;;;;;;;;18.26;65.17;100468.91;7403622;19;2074;-47
2023/01/21 11:55:22;;;;;;;;;;;;;;;18.27;64.84;100460.75;7402279;19;1821;-47
2023/01/21 11:57:51;;;;;;;;;;;;;;;18.29;65.14;100472.16;7402848;19;1848;-47
2023/01/21 12:00:21;;;;;;;;;;;;;;;18.29;64.63;100469.50;7402227;19;1715;-47
2023/01/21 12:02:50;;;;;;;;;;;;;;;18.28;64.84;100483.00;7401440;19;2078;-48
2023/01/21 12:05:22;;;;;;;;;;;;;;;18.26;64.74;100467.09;7401787;19;2236;-47
2023/01/21 12:07:52;;;;;;;;;;;;;;;18.25;64.62;100467.25;7402073;19;2237;-47
2023/01/21 12:10:28;;;;;;;;;;;;;;;18.19;65.03;100476.66;7402025;19;1751;-47
2023/01/21 12:13:04;;;;;;;;;;;;;;;18.21;64.50;100465.81;7402689;19;1653;-47
2023/01/21 12:15:45;;;;;;;;;;;;;;;18.19;64.98;100462.44;7402128;19;1923;-47
2023/01/21 12:18:18;;;;;;;;;;;;;;;18.14;65.07;100470.84;7402272;19;1794;-47
2023/01/21 12:20:50;;;;;;;;;;;;;;;18.08;65.36;100466.94;7401896;19;2097;-47
2023/01/21 12:23:23;;;;;;;;;;;;;;;18.05;65.23;100474.38;7401388;19;1874;-47
2023/01/21 12:25:58;;;;;;;;;;;;;;;17.99;65.14;100478.44;7400884;19;1764;-48
2023/01/21 12:28:36;;;;;;;;;;;;;;;17.95;65.40;100477.03;7401718;19;1923;-47
2023/01/21 12:31:11;;;;;;;;;;;;;;;17.94;65.24;100471.78;7401337;19;1839;-47
2023/01/21 12:33:47;;;;;;;;;;;;;;;17.88;65.50;100484.72;7399935;19;1742;-47
2023/01/21 12:36:18;;;;;;;;;;;;;;;17.84;65.31;100477.94;7401492;19;1965;-47
2023/01/21 12:38:48;;;;;;;;;;;;;;;17.86;65.64;100489.34;7400917;19;1756;-47
2023/01/21 12:41:23;;;;;;;;;;;;;;;17.83;65.59;100483.41;7400277;19;1892;-47
2023/01/21 12:43:54;;;;;;;;;;;;;;;17.76;65.47;100491.13;7399837;19;1869;-47
2023/01/21 12:46:24;;;;;;;;;;;;;;;17.76;65.54;100483.09;7399198;19;1825;-47
2023/01/21 12:48:55;;;;;;;;;;;;;;;17.73;65.79;100498.59;7399635;19;1776;-47
2023/01/21 12:51:25;;;;;;;;;;;;;;;17.72;65.51;100496.88;7397143;19;1689;-47
2023/01/21 12:53:57;;;;;;;;;;;;;;;17.72;65.77;100502.22;7396974;19;1758;-47
2023/01/21 12:56:31;;;;;;;;;;;;;;;17.85;64.98;100509.06;7398587;19;2059;-48
2023/01/21 12:59:01;;;;;;;;;;;;;;;17.88;65.09;100511.47;7397829;19;1969;-48
2023/01/21 13:01:37;;;;;;;;;;;;;;;17.92;65.18;100513.88;7399586;19;1925;-47
2023/01/21 13:04:08;;;;;;;;;;;;;;;17.91;65.18;100505.03;7397915;19;1854;-48
2023/01/21 13:06:39;;;;;;;;;;;;;;;17.91;64.88;100512.22;7400342;19;1942;-48
2023/01/21 13:09:12;;;;;;;;;;;;;;;17.86;65.49;100516.09;7398941;19;1942;-48
2023/01/21 13:11:47;;;;;;;;;;;;;;;17.87;65.33;100511.63;7397964;19;1971;-48
2023/01/21 13:14:25;;;;;;;;;;;;;;;17.86;65.87;100518.78;7398554;19;1805;-48
2023/01/21 13:16:56;;;;;;;;;;;;;;;18.53;63.87;100503.06;7399433;19;1796;-48